createdAt,value
2018-02-18T00:00:34.044Z,28.15
2018-02-18T00:03:01.482Z,27.60
2018-02-18T00:05:28.910Z,27.23
2018-02-18T00:07:56.360Z,28.60
2018-02-18T00:10:23.796Z,26.60
2018-02-18T00:12:51.995Z,28.42
2018-02-18T00:15:20.212Z,29.02
2018-02-18T00:17:47.647Z,29.67
2018-02-18T00:20:15.078Z,27.10
2018-02-18T00:22:42.518Z,28.25
2018-02-18T00:25:09.963Z,26.83
2018-02-18T00:27:37.408Z,27.10
2018-02-18T00:30:04.839Z,29.33
2018-02-18T00:32:32.298Z,26.90
2018-02-18T00:34:59.743Z,27.35
2018-02-18T00:37:27.187Z,27.67
2018-02-18T00:39:54.674Z,28.00
2018-02-18T00:42:22.120Z,29.60
2018-02-18T00:44:49.558Z,27.48
2018-02-18T00:47:17.764Z,28.70
2018-02-18T00:49:45.211Z,28.53
2018-02-18T00:52:12.660Z,27.27
2018-02-18T00:54:40.094Z,29.75
2018-02-18T00:57:08.303Z,28.40
2018-02-18T00:59:36.520Z,28.35
2018-02-18T01:02:03.977Z,28.98
2018-02-18T01:04:32.167Z,27.48
2018-02-18T01:07:00.382Z,25.85
2018-02-18T01:09:27.820Z,26.92
2018-02-18T01:11:55.271Z,28.90
2018-02-18T01:14:22.733Z,28.40
2018-02-18T01:16:50.163Z,26.52
2018-02-18T01:19:17.621Z,29.12
2018-02-18T01:21:45.064Z,27.40
2018-02-18T01:24:12.524Z,27.77
2018-02-18T01:26:39.960Z,27.80
2018-02-18T01:29:07.398Z,26.80
2018-02-18T01:31:35.604Z,24.90
2018-02-18T01:34:03.056Z,28.17
2018-02-18T01:36:30.482Z,26.10
2018-02-18T01:38:57.923Z,28.33
2018-02-18T01:41:26.128Z,26.70
2018-02-18T01:43:54.340Z,27.47
2018-02-18T01:46:21.778Z,28.23
2018-02-18T01:48:49.222Z,30.80
2018-02-18T01:51:16.711Z,29.50
2018-02-18T01:53:44.165Z,28.42
2018-02-18T01:56:12.360Z,27.93
2018-02-18T01:58:40.563Z,25.85
2018-02-18T02:01:08.003Z,28.20
2018-02-18T02:03:35.448Z,28.20
2018-02-18T02:06:02.879Z,26.70
2018-02-18T02:08:30.324Z,27.35
2018-02-18T02:10:57.755Z,26.40
2018-02-18T02:13:25.989Z,24.83
2018-02-18T02:15:53.416Z,25.62
2018-02-18T02:18:21.630Z,24.80
2018-02-18T02:20:49.831Z,26.70
2018-02-18T02:23:18.048Z,27.10
2018-02-18T02:25:45.480Z,28.25
2018-02-18T02:28:12.925Z,29.83
2018-02-18T02:30:40.360Z,27.62
2018-02-18T02:33:08.574Z,26.37
2018-02-18T02:35:36.773Z,26.10
2018-02-18T02:38:04.239Z,27.80
2018-02-18T02:40:32.447Z,26.77
2018-02-18T02:43:00.665Z,26.50
2018-02-18T02:45:28.091Z,26.92
2018-02-18T02:47:55.532Z,28.77
2018-02-18T02:50:22.991Z,26.70
2018-02-18T02:52:51.202Z,25.73
2018-02-18T02:55:18.648Z,28.75
2018-02-18T02:57:46.093Z,27.35
2018-02-18T03:00:13.548Z,26.37
2018-02-18T03:02:40.988Z,26.20
2018-02-18T03:05:08.427Z,27.70
2018-02-18T03:07:35.863Z,27.67
2018-02-18T03:10:04.100Z,25.95
2018-02-18T03:12:31.536Z,25.12
2018-02-18T03:14:59.750Z,25.80
2018-02-18T03:17:27.943Z,24.90
2018-02-18T03:19:56.173Z,26.75
2018-02-18T03:22:23.599Z,25.90
2018-02-18T03:24:51.086Z,25.53
2018-02-18T03:27:18.533Z,25.83
2018-02-18T03:29:45.980Z,25.73
2018-02-18T03:32:13.428Z,24.00
2018-02-18T03:34:40.879Z,26.60
2018-02-18T03:37:08.329Z,26.50
2018-02-18T03:39:35.776Z,25.12
2018-02-18T03:42:03.211Z,26.90
2018-02-18T03:44:30.655Z,27.70
2018-02-18T03:46:58.094Z,26.98
2018-02-18T03:49:25.552Z,27.45
2018-02-18T03:51:53.003Z,28.33
2018-02-18T03:54:20.444Z,27.70
2018-02-18T03:56:47.879Z,29.48
2018-02-18T03:59:15.327Z,30.08
2018-02-18T04:01:43.519Z,29.30
2018-02-18T04:04:11.742Z,26.90
2018-02-18T04:06:39.180Z,27.20
2018-02-18T04:09:06.623Z,28.20
2018-02-18T04:11:34.067Z,28.62
2018-02-18T04:14:02.285Z,27.83
2018-02-18T04:16:29.717Z,27.83
2018-02-18T04:18:57.155Z,27.10
2018-02-18T04:21:24.597Z,28.07
2018-02-18T04:23:52.799Z,26.90
2018-02-18T04:26:21.017Z,27.62
2018-02-18T04:28:48.451Z,26.62
2018-02-18T04:31:15.916Z,27.10
2018-02-18T04:33:43.353Z,25.52
2018-02-18T04:36:10.801Z,27.33
2018-02-18T04:38:38.230Z,24.90
2018-02-18T04:41:05.671Z,24.80
2018-02-18T04:43:33.111Z,23.80
2018-02-18T04:46:00.555Z,24.00
2018-02-18T04:48:28.751Z,24.60
2018-02-18T04:50:56.200Z,25.40
2018-02-18T04:53:23.642Z,26.23
2018-02-18T04:55:51.083Z,25.67
2018-02-18T04:58:19.296Z,25.70
2018-02-18T05:00:46.744Z,25.70
2018-02-18T05:03:14.172Z,25.62
2018-02-18T05:05:41.621Z,25.33
2018-02-18T05:08:09.846Z,26.35
2018-02-18T05:10:37.296Z,26.35
2018-02-18T05:13:04.720Z,27.30
2018-02-18T05:15:32.167Z,25.02
2018-02-18T05:18:00.368Z,27.20
2018-02-18T05:20:28.592Z,23.67
2018-02-18T05:22:56.025Z,24.63
2018-02-18T05:25:23.487Z,25.67
2018-02-18T05:27:50.927Z,24.65
2018-02-18T05:30:19.246Z,25.85
2018-02-18T05:32:46.689Z,25.12
2018-02-18T05:35:14.901Z,24.87
2018-02-18T05:37:42.355Z,25.42
2018-02-18T05:40:09.793Z,28.00
2018-02-18T05:42:37.236Z,25.80
2018-02-18T05:45:04.673Z,27.20
2018-02-18T05:47:32.128Z,29.42
2018-02-18T05:49:59.572Z,28.62
2018-02-18T05:52:27.827Z,26.02
2018-02-18T05:54:55.277Z,25.30
2018-02-18T05:57:22.714Z,25.25
2018-02-18T05:59:50.916Z,24.95
2018-02-18T06:02:19.157Z,22.87
2018-02-18T06:04:46.592Z,24.00
2018-02-18T06:07:14.019Z,24.20
2018-02-18T06:09:41.489Z,23.85
2018-02-18T06:12:08.914Z,25.50
2018-02-18T06:14:36.360Z,26.60
2018-02-18T06:17:03.808Z,26.35
2018-02-18T06:19:32.015Z,25.12
2018-02-18T06:22:00.223Z,25.70
2018-02-18T06:24:27.666Z,27.27
2018-02-18T06:26:55.107Z,26.98
2018-02-18T06:29:22.553Z,24.42
2018-02-18T06:31:50.761Z,27.10
2018-02-18T06:34:18.207Z,25.42
2018-02-18T06:36:45.635Z,26.00
2018-02-18T06:39:13.084Z,25.10
2018-02-18T06:41:40.527Z,23.45
2018-02-18T06:44:07.972Z,25.77
2018-02-18T06:46:35.411Z,24.42
2018-02-18T06:49:02.847Z,26.50
2018-02-18T06:51:30.295Z,25.48
2018-02-18T06:53:58.499Z,24.00
2018-02-18T06:56:26.704Z,27.00
2018-02-18T06:58:54.923Z,25.48
2018-02-18T07:01:22.360Z,25.35
2018-02-18T07:03:49.853Z,27.00
2018-02-18T07:06:18.064Z,25.77
2018-02-18T07:08:45.520Z,27.83
2018-02-18T07:11:12.964Z,27.20
2018-02-18T07:13:40.414Z,26.70
2018-02-18T07:16:07.843Z,26.83
2018-02-18T07:18:35.300Z,27.65
2018-02-18T07:21:02.735Z,27.55
2018-02-18T07:23:30.943Z,27.33
2018-02-18T07:25:58.382Z,26.92
2018-02-18T07:28:25.819Z,27.60
2018-02-18T07:30:53.251Z,27.03
2018-02-18T07:33:20.708Z,27.60
2018-02-18T07:35:48.140Z,28.50
2018-02-18T07:38:16.357Z,28.83
2018-02-18T07:40:43.804Z,29.33
2018-02-18T07:43:11.247Z,30.30
2018-02-18T07:45:38.695Z,28.75
2018-02-18T07:48:06.146Z,29.80
2018-02-18T07:50:33.579Z,28.75
2018-02-18T07:53:01.019Z,31.10
2018-02-18T07:55:29.223Z,31.65
2018-02-18T07:57:56.672Z,30.40
2018-02-18T08:00:24.108Z,25.97
2018-02-18T08:02:51.548Z,31.05
2018-02-18T08:05:19.751Z,30.95
2018-02-18T08:07:47.957Z,32.07
2018-02-18T08:10:15.404Z,30.73
2018-02-18T08:12:42.831Z,31.15
2018-02-18T08:15:10.267Z,29.80
2018-02-18T08:17:37.720Z,30.80
2018-02-18T08:20:05.166Z,30.83
2018-02-18T08:22:32.603Z,31.30
2018-02-18T08:25:00.051Z,30.67
2018-02-18T08:27:27.488Z,30.90
2018-02-18T08:29:55.708Z,32.70
2018-02-18T08:32:23.152Z,32.40
2018-02-18T08:34:50.638Z,32.00
2018-02-18T08:37:18.081Z,31.35
2018-02-18T08:39:45.525Z,32.42
2018-02-18T08:42:12.976Z,32.08
2018-02-18T08:44:40.411Z,32.38
2018-02-18T08:47:07.864Z,35.40
2018-02-18T08:49:35.309Z,33.70
2018-02-18T08:52:02.745Z,34.90
2018-02-18T08:54:30.205Z,35.20
2018-02-18T08:56:57.636Z,33.05
2018-02-18T08:59:25.093Z,32.85
2018-02-18T09:01:52.529Z,31.15
2018-02-18T09:04:19.972Z,31.87
2018-02-18T09:06:47.412Z,32.88
2018-02-18T09:09:14.857Z,33.10
2018-02-18T09:11:42.309Z,34.70
2018-02-18T09:14:09.768Z,32.63
2018-02-18T09:16:37.648Z,31.75
2018-02-18T09:19:05.845Z,33.13
2018-02-18T09:21:33.293Z,34.75
2018-02-18T09:24:00.743Z,34.00
2018-02-18T09:26:28.177Z,33.13
2018-02-18T09:28:56.485Z,33.83
2018-02-18T09:31:24.675Z,33.92
2018-02-18T09:33:52.885Z,34.60
2018-02-18T09:36:21.087Z,35.70
2018-02-18T09:38:48.530Z,33.30
2018-02-18T09:41:15.967Z,34.08
2018-02-18T09:43:43.410Z,34.22
2018-02-18T09:46:11.620Z,33.65
2018-02-18T09:48:39.077Z,33.08
2018-02-18T09:51:06.524Z,34.08
2018-02-18T09:53:33.964Z,34.20
2018-02-18T09:56:01.427Z,34.55
2018-02-18T09:58:28.847Z,32.10
2018-02-18T10:00:56.298Z,32.63
2018-02-18T10:03:23.737Z,32.63
2018-02-18T10:05:51.187Z,31.52
2018-02-18T10:08:18.619Z,31.37
2018-02-18T10:10:46.059Z,30.52
2018-02-18T10:13:13.516Z,31.17
2018-02-18T10:15:40.952Z,31.35
2018-02-18T10:18:08.380Z,32.07
2018-02-18T10:20:35.839Z,32.72
2018-02-18T10:23:04.031Z,29.90
2018-02-18T10:25:32.242Z,32.25
2018-02-18T10:28:00.438Z,31.77
2018-02-18T10:30:28.669Z,33.00
2018-02-18T10:32:56.079Z,35.83
2018-02-18T10:35:23.532Z,34.15
2018-02-18T10:37:50.985Z,31.98
2018-02-18T10:40:18.427Z,31.55
2018-02-18T10:42:45.863Z,30.80
2018-02-18T10:45:13.325Z,30.05
2018-02-18T10:47:40.759Z,29.30
2018-02-18T10:50:08.221Z,30.45
2018-02-18T10:52:35.662Z,30.98
2018-02-18T10:55:03.109Z,30.23
2018-02-18T10:57:30.559Z,31.17
2018-02-18T10:59:58.017Z,30.20
2018-02-18T11:02:25.465Z,30.62
2018-02-18T11:04:53.689Z,29.55
2018-02-18T11:07:21.132Z,32.22
2018-02-18T11:09:48.582Z,32.83
2018-02-18T11:12:16.021Z,34.05
2018-02-18T11:14:44.241Z,32.13
2018-02-18T11:17:11.685Z,33.20
2018-02-18T11:19:39.908Z,32.72
2018-02-18T11:22:07.362Z,31.80
2018-02-18T11:24:35.567Z,34.60
2018-02-18T11:27:03.766Z,32.97
2018-02-18T11:29:31.980Z,36.00
2018-02-18T11:31:59.429Z,35.17
2018-02-18T11:34:26.865Z,34.53
2018-02-18T11:36:54.308Z,34.25
2018-02-18T11:39:22.525Z,34.35
2018-02-18T11:41:49.980Z,34.00
2018-02-18T11:44:18.179Z,34.22
2018-02-18T11:46:46.393Z,35.85
2018-02-18T11:49:13.833Z,36.50
2018-02-18T11:51:41.272Z,34.20
2018-02-18T11:54:08.712Z,34.95
2018-02-18T11:56:36.937Z,35.90
2018-02-18T11:59:04.368Z,36.05
2018-02-18T12:01:31.814Z,36.30
2018-02-18T12:03:59.257Z,37.60
2018-02-18T12:06:27.455Z,36.95
2018-02-18T12:08:55.656Z,37.60
2018-02-18T12:11:23.863Z,37.35
2018-02-18T12:13:52.069Z,37.65
2018-02-18T12:16:20.277Z,36.03
2018-02-18T12:18:47.711Z,37.10
2018-02-18T12:21:15.151Z,39.77
2018-02-18T12:23:42.619Z,40.10
2018-02-18T12:26:10.060Z,39.72
2018-02-18T12:28:37.491Z,41.05
2018-02-18T12:31:04.938Z,38.47
2018-02-18T12:33:33.148Z,40.17
2018-02-18T12:36:01.368Z,38.27
2018-02-18T12:38:28.811Z,37.92
2018-02-18T12:40:57.023Z,39.22
2018-02-18T12:43:24.464Z,42.53
2018-02-18T12:45:51.913Z,42.97
2018-02-18T12:48:19.344Z,41.60
2018-02-18T12:50:47.565Z,40.57
2018-02-18T12:53:15.777Z,42.33
2018-02-18T12:55:43.233Z,42.65
2018-02-18T12:58:11.435Z,39.25
2018-02-18T13:00:39.649Z,36.50
2018-02-18T13:03:07.094Z,42.67
2018-02-18T13:05:34.548Z,41.40
2018-02-18T13:08:02.009Z,42.60
2018-02-18T13:10:29.444Z,43.13
2018-02-18T13:12:57.656Z,42.42
2018-02-18T13:15:25.881Z,40.45
2018-02-18T13:17:53.330Z,44.30
2018-02-18T13:20:21.536Z,43.38
2018-02-18T13:22:49.816Z,42.50
2018-02-18T13:25:17.240Z,45.60
2018-02-18T13:27:44.688Z,45.78
2018-02-18T13:30:12.892Z,45.30
2018-02-18T13:32:41.145Z,44.85
2018-02-18T13:35:08.548Z,45.28
2018-02-18T13:37:35.991Z,42.80
2018-02-18T13:40:03.448Z,45.20
2018-02-18T13:42:31.672Z,46.75
2018-02-18T13:44:59.136Z,46.03
2018-02-18T13:47:26.604Z,48.65
2018-02-18T13:49:54.039Z,47.22
2018-02-18T13:52:21.485Z,45.67
2018-02-18T13:54:48.930Z,44.22
2018-02-18T13:57:17.139Z,45.22
2018-02-18T13:59:44.571Z,45.57
2018-02-18T14:02:12.033Z,43.60
2018-02-18T14:04:39.476Z,44.35
2018-02-18T14:07:07.681Z,43.55
2018-02-18T14:09:35.133Z,44.78
2018-02-18T14:12:02.588Z,45.85
2018-02-18T14:14:30.032Z,43.50
2018-02-18T14:16:57.471Z,43.60
2018-02-18T14:19:24.933Z,47.00
2018-02-18T14:21:52.363Z,44.67
2018-02-18T14:24:19.812Z,45.15
2018-02-18T14:26:47.260Z,46.60
2018-02-18T14:29:14.746Z,43.40
2018-02-18T14:31:42.148Z,38.00
2018-02-18T14:34:09.594Z,43.23
2018-02-18T14:36:37.044Z,43.95
2018-02-18T14:39:04.518Z,41.15
2018-02-18T14:41:44.751Z,43.17
2018-02-18T14:44:24.059Z,40.28
2018-02-18T14:47:04.371Z,41.28
2018-02-18T14:49:43.581Z,39.67
2018-02-18T14:52:22.944Z,40.45
2018-02-18T14:55:15.175Z,40.25
2018-02-18T14:57:42.607Z,41.33
2018-02-18T15:00:10.084Z,39.00
2018-02-18T15:02:37.523Z,39.80
2018-02-18T15:05:04.977Z,39.25
2018-02-18T15:07:33.176Z,38.17
2018-02-18T15:10:01.378Z,35.00
2018-02-18T15:12:29.600Z,37.72
2018-02-18T15:14:57.043Z,37.50
2018-02-18T15:17:24.471Z,35.10
2018-02-18T15:19:51.927Z,35.92
2018-02-18T15:22:20.132Z,36.65
2018-02-18T15:24:48.340Z,34.65
2018-02-18T15:27:15.820Z,34.37
2018-02-18T15:29:44.008Z,32.75
2018-02-18T15:32:12.226Z,29.15
2018-02-18T15:34:41.188Z,26.98
2018-02-18T15:37:08.644Z,26.08
2018-02-18T15:39:36.075Z,26.30
2018-02-18T15:42:04.309Z,27.85
2018-02-18T15:44:31.750Z,30.80
2018-02-18T15:46:59.208Z,32.67
2018-02-18T15:49:26.646Z,32.90
2018-02-18T15:51:54.867Z,32.38
2018-02-18T15:54:22.304Z,30.30
2018-02-18T15:56:49.760Z,34.10
2018-02-18T15:59:17.204Z,30.42
2018-02-18T16:01:44.670Z,31.45
2018-02-18T16:04:12.103Z,30.50
2018-02-18T16:06:39.603Z,34.20
2018-02-18T16:09:07.105Z,31.48
2018-02-18T16:11:35.320Z,31.67
2018-02-18T16:14:02.774Z,32.03
2018-02-18T16:16:30.217Z,31.67
2018-02-18T16:18:57.656Z,31.98
2018-02-18T16:21:25.888Z,30.45
2018-02-18T16:23:53.338Z,30.95
2018-02-18T16:26:21.542Z,31.00
2018-02-18T16:28:48.975Z,30.87
2018-02-18T16:31:16.433Z,30.90
2018-02-18T16:33:43.879Z,30.65
2018-02-18T16:36:11.326Z,30.10
2018-02-18T16:38:40.263Z,31.23
2018-02-18T16:41:07.712Z,32.10
2018-02-18T16:43:35.169Z,29.35
2018-02-18T16:46:03.373Z,31.30
2018-02-18T16:48:30.829Z,29.42
2018-02-18T16:50:58.319Z,30.83
2018-02-18T16:53:25.712Z,30.77
2018-02-18T16:55:53.147Z,30.67
2018-02-18T16:58:20.608Z,28.00
2018-02-18T17:00:48.046Z,28.90
2018-02-18T17:03:16.274Z,28.40
2018-02-18T17:05:43.714Z,28.48
2018-02-18T17:08:11.932Z,28.83
2018-02-18T17:10:39.368Z,27.85
2018-02-18T17:13:06.807Z,25.08
2018-02-18T17:15:34.244Z,24.00
2018-02-18T17:18:01.706Z,23.83
2018-02-18T17:20:29.141Z,25.30
2018-02-18T17:22:56.579Z,24.63
2018-02-18T17:25:24.015Z,23.60
2018-02-18T17:27:51.459Z,23.00
2018-02-18T17:30:20.079Z,23.23
2018-02-18T17:32:47.511Z,20.77
2018-02-18T17:35:14.963Z,21.12
2018-02-18T17:37:42.399Z,21.85
2018-02-18T17:40:09.835Z,21.90
2018-02-18T17:42:37.267Z,20.17
2018-02-18T17:45:05.482Z,20.25
2018-02-18T17:47:33.693Z,20.20
2018-02-18T17:50:01.891Z,20.65
2018-02-18T17:52:29.335Z,19.62
2018-02-18T17:54:56.780Z,19.30
2018-02-18T17:57:24.275Z,20.80
2018-02-18T17:59:51.666Z,18.87
2018-02-18T18:02:19.133Z,20.20
2018-02-18T18:04:46.603Z,22.70
2018-02-18T18:07:14.041Z,20.83
2018-02-18T18:09:42.252Z,19.80
2018-02-18T18:12:09.707Z,17.90
2018-02-18T18:14:37.150Z,19.45
2018-02-18T18:17:04.588Z,20.10
2018-02-18T18:19:32.786Z,19.17
2018-02-18T18:22:00.267Z,18.17
2018-02-18T18:24:27.685Z,22.87
2018-02-18T18:26:55.143Z,23.30
2018-02-18T18:29:22.569Z,21.90
2018-02-18T18:31:50.024Z,20.50
2018-02-18T18:34:17.455Z,20.00
2018-02-18T18:36:45.659Z,20.70
2018-02-18T18:39:13.859Z,19.27
2018-02-18T18:41:42.064Z,18.73
2018-02-18T18:44:09.521Z,18.58
2018-02-18T18:46:36.963Z,17.60
2018-02-18T18:49:05.164Z,20.85
2018-02-18T18:51:33.379Z,19.60
2018-02-18T18:54:00.823Z,19.75
2018-02-18T18:56:28.281Z,19.12
2018-02-18T18:58:55.730Z,20.50
2018-02-18T19:01:23.167Z,20.73
2018-02-18T19:03:50.609Z,20.67
2018-02-18T19:06:18.067Z,20.02
2018-02-18T19:08:45.499Z,19.27
2018-02-18T19:11:12.939Z,19.50
2018-02-18T19:13:40.383Z,18.33
2018-02-18T19:16:08.587Z,18.37
2018-02-18T19:18:36.783Z,17.70
2018-02-18T19:21:04.240Z,17.35
2018-02-18T19:23:31.688Z,17.40
2018-02-18T19:25:59.137Z,17.20
2018-02-18T19:28:26.577Z,16.35
2018-02-18T19:30:54.026Z,17.27
2018-02-18T19:33:21.468Z,18.55
2018-02-18T19:35:48.916Z,17.33
2018-02-18T19:38:16.362Z,16.33
2018-02-18T19:40:43.795Z,17.73
2018-02-18T19:43:12.004Z,17.42
2018-02-18T19:45:40.221Z,16.83
2018-02-18T19:48:07.842Z,18.52
2018-02-18T19:50:35.307Z,19.02
2018-02-18T19:53:02.749Z,18.95
2018-02-18T19:55:30.192Z,19.00
2018-02-18T19:57:57.633Z,19.73
2018-02-18T20:00:25.077Z,20.92
2018-02-18T20:02:52.519Z,20.35
2018-02-18T20:05:19.981Z,19.55
2018-02-18T20:07:47.460Z,21.33
2018-02-18T20:10:14.905Z,21.80
2018-02-18T20:12:42.391Z,22.73
2018-02-18T20:15:09.833Z,20.73
2018-02-18T20:17:37.293Z,21.70
2018-02-18T20:20:04.757Z,21.60
2018-02-18T20:22:32.960Z,22.35
2018-02-18T20:25:00.403Z,23.62
2018-02-18T20:27:27.913Z,23.77
2018-02-18T20:29:55.309Z,25.15
2018-02-18T20:32:22.763Z,23.92
2018-02-18T20:34:50.976Z,25.47
2018-02-18T20:37:19.201Z,24.23
2018-02-18T20:39:46.631Z,25.92
2018-02-18T20:42:14.088Z,25.77
2018-02-18T20:44:41.539Z,24.77
2018-02-18T20:47:08.998Z,23.98
2018-02-18T20:49:37.199Z,26.62
2018-02-18T20:52:04.651Z,26.12
2018-02-18T20:54:32.103Z,27.48
2018-02-18T20:56:59.587Z,27.02
2018-02-18T20:59:26.988Z,27.33
2018-02-18T21:01:54.432Z,19.93
2018-02-18T21:14:09.857Z,16.20
2018-02-18T21:16:38.096Z,23.73
2018-02-18T21:19:05.511Z,28.60
2018-02-18T21:21:32.954Z,26.70
2018-02-18T21:24:00.415Z,27.50
2018-02-18T21:26:27.871Z,28.50
2018-02-18T21:28:56.082Z,25.75
2018-02-18T21:31:23.527Z,25.48
2018-02-18T21:33:50.979Z,26.77
2018-02-18T21:36:18.419Z,25.45
2018-02-18T21:38:45.882Z,23.55
2018-02-18T21:41:13.307Z,18.30
2018-02-18T21:43:40.747Z,16.90
2018-02-18T21:46:08.947Z,17.00
2018-02-18T21:48:37.159Z,16.87
2018-02-18T21:51:04.598Z,16.30
2018-02-18T21:58:26.822Z,15.90
2018-02-18T22:00:54.255Z,23.45
2018-02-18T22:03:21.699Z,23.08
2018-02-18T22:05:49.161Z,26.00
2018-02-18T22:08:16.607Z,23.92
2018-02-18T22:10:44.061Z,22.07
2018-02-18T22:13:12.280Z,22.55
2018-02-18T22:15:39.720Z,24.80
2018-02-18T22:18:07.168Z,22.63
2018-02-18T22:20:34.607Z,20.00
2018-02-18T22:23:02.824Z,19.67
2018-02-18T22:25:30.269Z,20.60
2018-02-18T22:27:57.728Z,18.90
2018-02-18T22:30:25.172Z,20.90
2018-02-18T22:32:52.622Z,20.58
2018-02-18T22:35:20.852Z,21.12
2018-02-18T22:37:48.296Z,22.48
2018-02-18T22:40:15.794Z,21.55
2018-02-18T22:42:43.179Z,27.20
2018-02-18T22:45:10.632Z,31.37
2018-02-18T22:47:38.077Z,30.73
2018-02-18T22:50:05.520Z,31.42
2018-02-18T22:52:32.967Z,30.10
2018-02-18T22:55:00.420Z,29.75
2018-02-18T22:57:27.872Z,30.75
2018-02-18T22:59:55.315Z,30.30
2018-02-18T23:02:22.765Z,29.92
2018-02-18T23:04:50.222Z,29.65
2018-02-18T23:07:17.685Z,30.30
2018-02-18T23:09:45.887Z,30.10
2018-02-18T23:12:13.345Z,32.38
2018-02-18T23:14:40.792Z,28.20
2018-02-18T23:17:08.240Z,29.77
2018-02-18T23:19:35.688Z,28.50
2018-02-18T23:22:03.140Z,29.97
2018-02-18T23:24:30.578Z,30.88
2018-02-18T23:26:58.031Z,31.37
2018-02-18T23:29:25.468Z,30.00
2018-02-18T23:31:52.920Z,31.45
2018-02-18T23:34:20.354Z,30.63
2018-02-18T23:36:47.866Z,33.40
2018-02-18T23:39:16.059Z,32.58
2018-02-18T23:41:44.278Z,32.20
2018-02-18T23:44:11.706Z,30.92
2018-02-18T23:46:39.172Z,32.03
2018-02-18T23:49:06.603Z,32.22
2018-02-18T23:51:34.811Z,30.92
2018-02-18T23:54:02.243Z,28.98
2018-02-18T23:56:29.696Z,31.70
2018-02-18T23:58:57.158Z,28.90
